sensor_id;sensor_type;location;lat;lon;timestamp;pressure;altitude;pressure_sealevel;temperature;humidity
13765;BME280;6953;48.810;9.204;2023-02-20T00:01:28;99826.38;;;10.78;87.39
13765;BME280;6953;48.810;9.204;2023-02-20T00:03:54;99905.91;;;11.29;87.31
13765;BME280;6953;48.810;9.204;2023-02-20T00:06:19;99884.34;;;11.21;87.05
13765;BME280;6953;48.810;9.204;2023-02-20T00:08:45;99872.50;;;11.09;87.07
13765;BME280;6953;48.810;9.204;2023-02-20T00:11:10;99824.38;;;10.84;87.47
13765;BME280;6953;48.810;9.204;2023-02-20T00:13:36;99877.84;;;11.06;87.53
13765;BME280;6953;48.810;9.204;2023-02-20T00:16:01;99834.25;;;10.78;87.66
13765;BME280;6953;48.810;9.204;2023-02-20T00:18:26;99830.75;;;10.77;87.79
13765;BME280;6953;48.810;9.204;2023-02-20T00:20:52;99892.31;;;11.18;87.87
13765;BME280;6953;48.810;9.204;2023-02-20T00:23:17;99887.00;;;11.19;87.54
13765;BME280;6953;48.810;9.204;2023-02-20T00:25:42;99615.50;;;9.60;87.38
13765;BME280;6953;48.810;9.204;2023-02-20T00:28:08;99680.63;;;9.96;87.62
13765;BME280;6953;48.810;9.204;2023-02-20T00:30:33;99626.63;;;9.66;87.52
13765;BME280;6953;48.810;9.204;2023-02-20T00:32:59;99886.19;;;11.17;87.69
13765;BME280;6953;48.810;9.204;2023-02-20T00:35:25;99880.03;;;11.18;87.45
13765;BME280;6953;48.810;9.204;2023-02-20T00:37:52;99847.13;;;10.84;87.61
13765;BME280;6953;48.810;9.204;2023-02-20T00:40:19;99621.31;;;9.43;87.86
13765;BME280;6953;48.810;9.204;2023-02-20T00:42:45;99891.56;;;10.90;88.29
13765;BME280;6953;48.810;9.204;2023-02-20T00:45:10;99901.06;;;10.94;88.39
13765;BME280;6953;48.810;9.204;2023-02-20T00:47:36;99968.88;;;11.07;88.34
13765;BME280;6953;48.810;9.204;2023-02-20T00:50:02;99906.78;;;11.05;88.04
13765;BME280;6953;48.810;9.204;2023-02-20T00:52:28;99826.16;;;10.59;87.62
13765;BME280;6953;48.810;9.204;2023-02-20T00:54:54;99912.00;;;11.06;87.93
13765;BME280;6953;48.810;9.204;2023-02-20T00:57:19;99757.78;;;10.15;87.93
13765;BME280;6953;48.810;9.204;2023-02-20T00:59:44;99918.06;;;11.08;88.12
13765;BME280;6953;48.810;9.204;2023-02-20T01:02:10;99665.38;;;9.57;88.04
13765;BME280;6953;48.810;9.204;2023-02-20T01:04:35;99907.50;;;10.85;88.46
13765;BME280;6953;48.810;9.204;2023-02-20T01:07:01;99798.84;;;10.15;89.02
13765;BME280;6953;48.810;9.204;2023-02-20T01:09:26;99937.28;;;10.58;90.00
13765;BME280;6953;48.810;9.204;2023-02-20T01:11:53;99834.59;;;9.90;90.65
13765;BME280;6953;48.810;9.204;2023-02-20T01:14:18;99922.84;;;10.20;91.59
13765;BME280;6953;48.810;9.204;2023-02-20T01:16:49;99797.91;;;9.36;92.19
13765;BME280;6953;48.810;9.204;2023-02-20T01:19:19;99902.63;;;9.94;92.96
13765;BME280;6953;48.810;9.204;2023-02-20T01:21:44;99908.13;;;9.87;93.07
13765;BME280;6953;48.810;9.204;2023-02-20T01:24:11;99642.16;;;8.05;93.52
13765;BME280;6953;48.810;9.204;2023-02-20T01:26:36;99873.41;;;9.50;94.44
13765;BME280;6953;48.810;9.204;2023-02-20T01:29:03;99824.81;;;9.13;94.50
13765;BME280;6953;48.810;9.204;2023-02-20T01:31:28;99917.47;;;9.37;95.33
13765;BME280;6953;48.810;9.204;2023-02-20T01:33:54;99906.06;;;9.38;96.17
13765;BME280;6953;48.810;9.204;2023-02-20T01:36:19;99882.03;;;9.26;96.04
13765;BME280;6953;48.810;9.204;2023-02-20T01:38:45;99870.13;;;9.15;96.53
13765;BME280;6953;48.810;9.204;2023-02-20T01:41:13;99890.78;;;8.95;96.94
13765;BME280;6953;48.810;9.204;2023-02-20T01:43:39;99891.75;;;9.21;97.19
13765;BME280;6953;48.810;9.204;2023-02-20T01:49:09;99792.25;;;8.62;97.82
13765;BME280;6953;48.810;9.204;2023-02-20T01:51:39;99623.53;;;7.55;97.34
13765;BME280;6953;48.810;9.204;2023-02-20T01:54:07;99864.53;;;8.96;97.76
13765;BME280;6953;48.810;9.204;2023-02-20T01:56:34;99883.53;;;9.03;97.95
13765;BME280;6953;48.810;9.204;2023-02-20T01:59:00;99872.38;;;8.96;97.50
13765;BME280;6953;48.810;9.204;2023-02-20T02:01:26;99656.38;;;7.63;97.19
13765;BME280;6953;48.810;9.204;2023-02-20T02:03:56;99924.66;;;8.99;97.28
13765;BME280;6953;48.810;9.204;2023-02-20T02:06:24;99868.28;;;8.88;97.64
13765;BME280;6953;48.810;9.204;2023-02-20T02:08:50;99712.19;;;7.93;96.96
13765;BME280;6953;48.810;9.204;2023-02-20T02:11:19;99783.72;;;8.24;97.39
13765;BME280;6953;48.810;9.204;2023-02-20T02:13:46;99891.16;;;8.80;97.37
13765;BME280;6953;48.810;9.204;2023-02-20T02:19:00;99889.56;;;8.74;98.37
13765;BME280;6953;48.810;9.204;2023-02-20T02:39:04;99786.47;;;9.10;94.28
13765;BME280;6953;48.810;9.204;2023-02-20T02:41:57;99872.59;;;9.77;93.57
13765;BME280;6953;48.810;9.204;2023-02-20T02:44:35;99891.00;;;9.75;92.69
13765;BME280;6953;48.810;9.204;2023-02-20T02:47:21;99789.25;;;9.33;92.46
13765;BME280;6953;48.810;9.204;2023-02-20T02:50:03;99864.59;;;9.81;92.23
13765;BME280;6953;48.810;9.204;2023-02-20T02:52:30;99889.97;;;9.81;91.97
13765;BME280;6953;48.810;9.204;2023-02-20T02:55:04;99849.09;;;9.74;91.89
13765;BME280;6953;48.810;9.204;2023-02-20T02:57:29;99542.44;;;7.90;91.77
13765;BME280;6953;48.810;9.204;2023-02-20T03:00:08;99856.69;;;9.83;91.73
13765;BME280;6953;48.810;9.204;2023-02-20T03:05:44;99826.41;;;9.73;91.08
13765;BME280;6953;48.810;9.204;2023-02-20T03:11:02;99858.25;;;9.61;91.52
13765;BME280;6953;48.810;9.204;2023-02-20T03:13:32;99871.44;;;9.58;91.92
13765;BME280;6953;48.810;9.204;2023-02-20T03:16:20;99890.19;;;9.44;92.01
13765;BME280;6953;48.810;9.204;2023-02-20T03:18:47;99847.88;;;9.29;92.65
13765;BME280;6953;48.810;9.204;2023-02-20T03:21:17;99874.63;;;9.38;92.87
13765;BME280;6953;48.810;9.204;2023-02-20T03:23:51;99587.91;;;7.84;92.61
13765;BME280;6953;48.810;9.204;2023-02-20T03:26:24;99842.53;;;9.32;92.95
13765;BME280;6953;48.810;9.204;2023-02-20T03:28:57;99853.25;;;9.25;93.37
13765;BME280;6953;48.810;9.204;2023-02-20T03:31:30;99784.63;;;8.85;94.04
13765;BME280;6953;48.810;9.204;2023-02-20T03:34:18;99847.41;;;9.15;94.69
13765;BME280;6953;48.810;9.204;2023-02-20T03:37:08;99581.88;;;7.50;94.50
13765;BME280;6953;48.810;9.204;2023-02-20T03:39:57;99769.00;;;8.51;95.18
13765;BME280;6953;48.810;9.204;2023-02-20T03:42:47;99834.50;;;8.79;95.57
13765;BME280;6953;48.810;9.204;2023-02-20T03:45:35;99883.00;;;8.92;95.98
13765;BME280;6953;48.810;9.204;2023-02-20T03:48:06;99644.63;;;7.79;95.52
13765;BME280;6953;48.810;9.204;2023-02-20T03:50:32;99881.72;;;9.06;95.66
13765;BME280;6953;48.810;9.204;2023-02-20T03:52:58;99868.94;;;9.25;95.40
13765;BME280;6953;48.810;9.204;2023-02-20T03:55:24;99863.50;;;9.32;95.22
13765;BME280;6953;48.810;9.204;2023-02-20T03:57:52;99868.63;;;9.36;94.89
13765;BME280;6953;48.810;9.204;2023-02-20T04:00:23;99549.59;;;7.53;94.82
13765;BME280;6953;48.810;9.204;2023-02-20T04:02:54;99847.09;;;9.26;95.09
13765;BME280;6953;48.810;9.204;2023-02-20T04:05:26;99855.94;;;9.22;95.36
13765;BME280;6953;48.810;9.204;2023-02-20T04:08:02;99758.66;;;8.47;95.17
13765;BME280;6953;48.810;9.204;2023-02-20T04:10:35;99844.19;;;8.75;95.89
13765;BME280;6953;48.810;9.204;2023-02-20T04:13:03;99865.47;;;8.63;96.85
13765;BME280;6953;48.810;9.204;2023-02-20T04:15:30;99814.75;;;8.35;97.67
13765;BME280;6953;48.810;9.204;2023-02-20T04:18:09;99519.28;;;6.47;97.98
13765;BME280;6953;48.810;9.204;2023-02-20T04:20:35;99841.25;;;8.22;99.00
13765;BME280;6953;48.810;9.204;2023-02-20T04:23:09;99840.56;;;8.14;99.67
13765;BME280;6953;48.810;9.204;2023-02-20T04:26:01;99845.94;;;8.08;100.00
13765;BME280;6953;48.810;9.204;2023-02-20T04:28:29;99562.97;;;6.36;100.00
13765;BME280;6953;48.810;9.204;2023-02-20T04:30:55;99711.34;;;7.22;100.00
13765;BME280;6953;48.810;9.204;2023-02-20T04:33:20;99837.59;;;7.94;100.00
13765;BME280;6953;48.810;9.204;2023-02-20T04:35:46;99831.59;;;7.89;100.00
13765;BME280;6953;48.810;9.204;2023-02-20T04:38:12;99841.34;;;7.83;100.00
13765;BME280;6953;48.810;9.204;2023-02-20T04:40:37;99839.88;;;7.70;100.00
13765;BME280;6953;48.810;9.204;2023-02-20T04:43:03;99841.00;;;7.60;100.00
13765;BME280;6953;48.810;9.204;2023-02-20T04:45:28;99849.28;;;7.40;100.00
13765;BME280;6953;48.810;9.204;2023-02-20T04:47:54;99700.50;;;6.63;100.00
13765;BME280;6953;48.810;9.204;2023-02-20T04:50:24;99869.56;;;7.28;100.00
13765;BME280;6953;48.810;9.204;2023-02-20T04:52:50;99638.47;;;5.97;100.00
13765;BME280;6953;48.810;9.204;2023-02-20T04:55:15;99837.72;;;7.13;100.00
13765;BME280;6953;48.810;9.204;2023-02-20T04:57:41;99569.19;;;5.45;100.00
13765;BME280;6953;48.810;9.204;2023-02-20T05:00:07;99842.19;;;7.06;100.00
13765;BME280;6953;48.810;9.204;2023-02-20T05:02:36;99831.91;;;7.00;100.00
13765;BME280;6953;48.810;9.204;2023-02-20T05:05:01;99854.44;;;7.03;100.00
13765;BME280;6953;48.810;9.204;2023-02-20T05:07:27;99845.31;;;6.82;100.00
13765;BME280;6953;48.810;9.204;2023-02-20T05:09:52;99652.75;;;5.77;100.00
13765;BME280;6953;48.810;9.204;2023-02-20T05:12:17;99850.22;;;6.97;100.00
13765;BME280;6953;48.810;9.204;2023-02-20T05:14:43;99859.78;;;6.97;100.00
13765;BME280;6953;48.810;9.204;2023-02-20T05:17:08;99890.28;;;6.93;100.00
13765;BME280;6953;48.810;9.204;2023-02-20T05:19:33;99759.25;;;6.38;100.00
13765;BME280;6953;48.810;9.204;2023-02-20T05:21:59;99895.56;;;6.90;100.00
13765;BME280;6953;48.810;9.204;2023-02-20T05:24:43;99838.38;;;6.80;100.00
13765;BME280;6953;48.810;9.204;2023-02-20T05:27:09;99704.50;;;5.95;100.00
13765;BME280;6953;48.810;9.204;2023-02-20T05:29:34;99858.41;;;6.79;100.00
13765;BME280;6953;48.810;9.204;2023-02-20T05:32:00;99882.03;;;6.72;100.00
13765;BME280;6953;48.810;9.204;2023-02-20T05:34:26;99874.31;;;6.64;100.00
13765;BME280;6953;48.810;9.204;2023-02-20T05:36:52;99828.47;;;6.53;100.00
13765;BME280;6953;48.810;9.204;2023-02-20T05:39:18;99850.09;;;6.58;100.00
13765;BME280;6953;48.810;9.204;2023-02-20T05:41:43;99841.59;;;6.50;100.00
13765;BME280;6953;48.810;9.204;2023-02-20T05:44:09;99855.31;;;6.58;100.00
13765;BME280;6953;48.810;9.204;2023-02-20T05:46:40;99737.31;;;6.05;100.00
13765;BME280;6953;48.810;9.204;2023-02-20T05:49:06;99848.22;;;6.64;100.00
13765;BME280;6953;48.810;9.204;2023-02-20T05:51:32;99861.25;;;6.66;100.00
13765;BME280;6953;48.810;9.204;2023-02-20T05:53:57;99846.47;;;6.66;100.00
13765;BME280;6953;48.810;9.204;2023-02-20T05:56:22;99835.34;;;6.58;100.00
13765;BME280;6953;48.810;9.204;2023-02-20T05:58:48;99774.22;;;6.29;100.00
13765;BME280;6953;48.810;9.204;2023-02-20T06:01:23;99849.84;;;6.71;100.00
13765;BME280;6953;48.810;9.204;2023-02-20T06:03:49;99611.88;;;5.33;100.00
13765;BME280;6953;48.810;9.204;2023-02-20T06:06:15;99875.28;;;6.60;100.00
13765;BME280;6953;48.810;9.204;2023-02-20T06:08:41;99842.81;;;6.75;100.00
13765;BME280;6953;48.810;9.204;2023-02-20T06:11:09;99841.75;;;6.85;100.00
13765;BME280;6953;48.810;9.204;2023-02-20T06:13:34;99832.38;;;6.76;100.00
13765;BME280;6953;48.810;9.204;2023-02-20T06:16:00;99851.31;;;6.86;100.00
13765;BME280;6953;48.810;9.204;2023-02-20T06:18:25;99848.72;;;6.84;100.00
13765;BME280;6953;48.810;9.204;2023-02-20T06:20:50;99858.34;;;6.81;100.00
13765;BME280;6953;48.810;9.204;2023-02-20T06:23:16;99852.31;;;6.79;100.00
13765;BME280;6953;48.810;9.204;2023-02-20T06:25:41;99838.50;;;6.74;100.00
13765;BME280;6953;48.810;9.204;2023-02-20T06:28:06;99802.47;;;6.50;100.00
13765;BME280;6953;48.810;9.204;2023-02-20T06:30:32;99821.47;;;6.55;100.00
13765;BME280;6953;48.810;9.204;2023-02-20T06:32:57;99873.78;;;6.93;100.00
13765;BME280;6953;48.810;9.204;2023-02-20T06:35:22;99862.44;;;6.95;100.00
13765;BME280;6953;48.810;9.204;2023-02-20T06:37:48;99862.44;;;6.94;100.00
13765;BME280;6953;48.810;9.204;2023-02-20T06:40:13;99855.47;;;6.94;100.00
13765;BME280;6953;48.810;9.204;2023-02-20T06:42:39;99828.03;;;6.75;100.00
13765;BME280;6953;48.810;9.204;2023-02-20T06:45:04;99522.19;;;5.07;100.00
13765;BME280;6953;48.810;9.204;2023-02-20T06:47:30;99585.81;;;5.38;100.00
13765;BME280;6953;48.810;9.204;2023-02-20T06:49:55;99776.31;;;6.53;100.00
13765;BME280;6953;48.810;9.204;2023-02-20T06:52:20;99844.19;;;6.94;100.00
13765;BME280;6953;48.810;9.204;2023-02-20T06:54:46;99657.63;;;5.95;100.00
13765;BME280;6953;48.810;9.204;2023-02-20T06:57:11;99861.78;;;7.25;100.00
13765;BME280;6953;48.810;9.204;2023-02-20T06:59:36;99775.84;;;6.78;100.00
13765;BME280;6953;48.810;9.204;2023-02-20T07:02:07;99888.31;;;7.45;100.00
13765;BME280;6953;48.810;9.204;2023-02-20T07:04:34;99866.16;;;7.24;100.00
13765;BME280;6953;48.810;9.204;2023-02-20T07:07:00;99838.81;;;7.42;100.00
13765;BME280;6953;48.810;9.204;2023-02-20T07:09:26;99607.69;;;6.17;100.00
13765;BME280;6953;48.810;9.204;2023-02-20T07:11:52;99664.94;;;6.62;100.00
13765;BME280;6953;48.810;9.204;2023-02-20T07:14:18;99884.38;;;8.05;100.00
13765;BME280;6953;48.810;9.204;2023-02-20T07:16:44;99867.69;;;8.09;100.00
13765;BME280;6953;48.810;9.204;2023-02-20T07:19:09;99880.06;;;8.37;100.00
13765;BME280;6953;48.810;9.204;2023-02-20T07:21:35;99885.09;;;8.46;100.00
13765;BME280;6953;48.810;9.204;2023-02-20T07:24:00;99744.09;;;7.72;100.00
13765;BME280;6953;48.810;9.204;2023-02-20T07:26:28;99618.56;;;7.11;100.00
13765;BME280;6953;48.810;9.204;2023-02-20T07:28:55;99821.63;;;8.39;100.00
13765;BME280;6953;48.810;9.204;2023-02-20T07:31:27;99857.16;;;8.48;99.61
13765;BME280;6953;48.810;9.204;2023-02-20T07:33:53;99884.44;;;9.02;98.45
13765;BME280;6953;48.810;9.204;2023-02-20T07:36:18;99899.63;;;9.20;97.87
13765;BME280;6953;48.810;9.204;2023-02-20T07:38:53;99585.19;;;7.57;96.30
13765;BME280;6953;48.810;9.204;2023-02-20T07:41:18;99803.53;;;8.94;95.45
13765;BME280;6953;48.810;9.204;2023-02-20T07:43:44;99822.94;;;9.16;94.83
13765;BME280;6953;48.810;9.204;2023-02-20T07:46:09;99883.56;;;9.62;94.26
13765;BME280;6953;48.810;9.204;2023-02-20T07:48:35;99891.00;;;9.75;93.50
13765;BME280;6953;48.810;9.204;2023-02-20T07:51:01;99659.94;;;8.55;92.01
13765;BME280;6953;48.810;9.204;2023-02-20T07:53:26;99887.53;;;10.02;91.33
13765;BME280;6953;48.810;9.204;2023-02-20T07:55:52;99611.84;;;8.59;89.82
13765;BME280;6953;48.810;9.204;2023-02-20T07:58:17;99878.09;;;10.24;89.66
13765;BME280;6953;48.810;9.204;2023-02-20T08:00:43;99869.88;;;10.34;88.92
13765;BME280;6953;48.810;9.204;2023-02-20T08:03:08;99864.34;;;10.43;87.43
13765;BME280;6953;48.810;9.204;2023-02-20T08:05:34;99801.53;;;10.13;87.06
13765;BME280;6953;48.810;9.204;2023-02-20T08:07:59;99749.63;;;9.97;86.04
13765;BME280;6953;48.810;9.204;2023-02-20T08:10:26;99888.50;;;10.77;85.28
13765;BME280;6953;48.810;9.204;2023-02-20T08:12:53;99842.00;;;10.81;85.21
13765;BME280;6953;48.810;9.204;2023-02-20T08:15:20;99852.78;;;10.98;83.77
13765;BME280;6953;48.810;9.204;2023-02-20T08:17:45;99792.56;;;10.69;82.98
13765;BME280;6953;48.810;9.204;2023-02-20T08:20:11;99877.41;;;11.18;82.53
13765;BME280;6953;48.810;9.204;2023-02-20T08:22:37;99762.31;;;10.82;81.98
13765;BME280;6953;48.810;9.204;2023-02-20T08:25:04;99844.91;;;11.43;82.00
13765;BME280;6953;48.810;9.204;2023-02-20T08:27:30;99840.81;;;11.59;80.80
13765;BME280;6953;48.810;9.204;2023-02-20T08:29:55;99879.38;;;12.03;79.34
13765;BME280;6953;48.810;9.204;2023-02-20T08:32:21;99835.09;;;13.70;71.75
13765;BME280;6953;48.810;9.204;2023-02-20T08:34:46;99866.78;;;15.43;64.52
13765;BME280;6953;48.810;9.204;2023-02-20T08:37:11;99680.56;;;16.35;56.36
13765;BME280;6953;48.810;9.204;2023-02-20T08:39:37;99833.91;;;18.99;50.63
13765;BME280;6953;48.810;9.204;2023-02-20T08:42:02;99817.75;;;20.47;44.39
13765;BME280;6953;48.810;9.204;2023-02-20T08:44:28;99865.53;;;21.75;40.72
13765;BME280;6953;48.810;9.204;2023-02-20T08:46:53;99842.06;;;22.54;37.72
13765;BME280;6953;48.810;9.204;2023-02-20T08:49:19;99842.31;;;23.03;35.68
13765;BME280;6953;48.810;9.204;2023-02-20T08:51:51;99649.59;;;22.82;33.98
13765;BME280;6953;48.810;9.204;2023-02-20T08:54:17;99828.13;;;24.31;31.93
13765;BME280;6953;48.810;9.204;2023-02-20T08:56:42;99839.91;;;24.49;31.55
13765;BME280;6953;48.810;9.204;2023-02-20T08:59:08;99834.38;;;25.26;29.49
13765;BME280;6953;48.810;9.204;2023-02-20T09:01:33;99667.47;;;24.93;28.73
13765;BME280;6953;48.810;9.204;2023-02-20T09:03:59;99826.56;;;25.88;27.88
13765;BME280;6953;48.810;9.204;2023-02-20T09:06:24;99632.53;;;24.56;28.33
13765;BME280;6953;48.810;9.204;2023-02-20T09:08:51;99782.56;;;26.24;26.95
13765;BME280;6953;48.810;9.204;2023-02-20T09:11:17;99843.78;;;27.01;26.29
13765;BME280;6953;48.810;9.204;2023-02-20T09:13:44;99859.63;;;27.47;25.28
13765;BME280;6953;48.810;9.204;2023-02-20T09:16:14;99846.84;;;28.07;23.89
13765;BME280;6953;48.810;9.204;2023-02-20T09:18:40;99845.69;;;28.10;23.78
13765;BME280;6953;48.810;9.204;2023-02-20T09:21:12;99852.94;;;28.58;22.80
13765;BME280;6953;48.810;9.204;2023-02-20T09:23:38;99688.41;;;28.16;22.58
13765;BME280;6953;48.810;9.204;2023-02-20T09:26:04;99846.81;;;29.92;21.77
13765;BME280;6953;48.810;9.204;2023-02-20T09:28:30;99789.56;;;30.41;20.81
13765;BME280;6953;48.810;9.204;2023-02-20T09:30:56;99809.53;;;31.15;20.56
13765;BME280;6953;48.810;9.204;2023-02-20T09:33:22;99864.97;;;31.72;19.53
13765;BME280;6953;48.810;9.204;2023-02-20T09:35:48;99850.84;;;32.20;19.25
13765;BME280;6953;48.810;9.204;2023-02-20T09:38:16;99849.47;;;33.15;17.95
13765;BME280;6953;48.810;9.204;2023-02-20T09:40:42;99850.66;;;32.71;18.39
13765;BME280;6953;48.810;9.204;2023-02-20T09:45:50;99824.63;;;33.80;17.43
13765;BME280;6953;48.810;9.204;2023-02-20T09:51:26;99796.59;;;35.31;15.96
13765;BME280;6953;48.810;9.204;2023-02-20T09:54:07;99836.16;;;34.15;16.98
13765;BME280;6953;48.810;9.204;2023-02-20T09:56:39;99833.56;;;32.77;17.99
13765;BME280;6953;48.810;9.204;2023-02-20T09:59:11;99835.34;;;31.03;19.16
13765;BME280;6953;48.810;9.204;2023-02-20T10:01:41;99826.78;;;29.55;20.72
13765;BME280;6953;48.810;9.204;2023-02-20T10:04:17;99810.53;;;28.51;21.92
13765;BME280;6953;48.810;9.204;2023-02-20T10:06:45;99650.50;;;27.60;21.71
13765;BME280;6953;48.810;9.204;2023-02-20T10:09:13;99727.34;;;27.23;22.72
13765;BME280;6953;48.810;9.204;2023-02-20T10:17:57;99633.69;;;23.97;26.80
13765;BME280;6953;48.810;9.204;2023-02-20T10:19:53;99530.16;;;24.32;25.95
13765;BME280;6953;48.810;9.204;2023-02-20T10:22:32;99764.53;;;25.26;26.22
13765;BME280;6953;48.810;9.204;2023-02-20T10:30:39;99729.19;;;26.02;25.58
13765;BME280;6953;48.810;9.204;2023-02-20T10:35:46;99773.47;;;30.84;19.83
13765;BME280;6953;48.810;9.204;2023-02-20T10:38:17;99742.94;;;31.42;18.71
13765;BME280;6953;48.810;9.204;2023-02-20T10:40:52;99744.25;;;31.89;17.91
13765;BME280;6953;48.810;9.204;2023-02-20T10:43:37;99615.00;;;32.15;17.95
13765;BME280;6953;48.810;9.204;2023-02-20T10:49:18;99790.53;;;34.37;16.40
13765;BME280;6953;48.810;9.204;2023-02-20T10:51:48;99753.31;;;33.63;16.52
13765;BME280;6953;48.810;9.204;2023-02-20T10:54:44;99625.13;;;33.31;16.13
13765;BME280;6953;48.810;9.204;2023-02-20T11:00:12;99584.16;;;34.18;15.56
13765;BME280;6953;48.810;9.204;2023-02-20T11:02:43;99808.16;;;35.33;15.17
13765;BME280;6953;48.810;9.204;2023-02-20T11:05:13;99621.91;;;34.53;15.04
13765;BME280;6953;48.810;9.204;2023-02-20T11:07:40;99785.22;;;35.27;15.49
13765;BME280;6953;48.810;9.204;2023-02-20T11:10:08;99811.28;;;35.62;14.94
13765;BME280;6953;48.810;9.204;2023-02-20T11:12:36;99784.34;;;35.72;14.48
13765;BME280;6953;48.810;9.204;2023-02-20T11:15:11;99729.69;;;35.72;14.57
13765;BME280;6953;48.810;9.204;2023-02-20T11:17:39;99730.97;;;35.76;14.55
13765;BME280;6953;48.810;9.204;2023-02-20T11:20:08;99783.56;;;35.65;14.54
13765;BME280;6953;48.810;9.204;2023-02-20T11:22:51;99770.34;;;35.24;14.88
13765;BME280;6953;48.810;9.204;2023-02-20T11:25:19;99760.69;;;35.15;14.91
13765;BME280;6953;48.810;9.204;2023-02-20T11:27:49;99588.53;;;34.38;14.70
13765;BME280;6953;48.810;9.204;2023-02-20T11:32:47;99727.09;;;35.21;14.86
13765;BME280;6953;48.810;9.204;2023-02-20T11:37:45;99743.63;;;34.01;15.63
13765;BME280;6953;48.810;9.204;2023-02-20T11:40:15;99737.22;;;34.21;16.19
13765;BME280;6953;48.810;9.204;2023-02-20T11:42:42;99734.31;;;34.29;15.46
13765;BME280;6953;48.810;9.204;2023-02-20T11:45:18;99658.56;;;34.25;15.31
13765;BME280;6953;48.810;9.204;2023-02-20T11:48:17;99681.72;;;34.94;15.14
13765;BME280;6953;48.810;9.204;2023-02-20T11:50:49;99723.91;;;35.56;15.12
13765;BME280;6953;48.810;9.204;2023-02-20T11:53:26;99722.25;;;34.97;14.76
13765;BME280;6953;48.810;9.204;2023-02-20T11:56:14;99557.88;;;33.78;14.81
13765;BME280;6953;48.810;9.204;2023-02-20T11:58:41;99644.81;;;33.73;15.48
13765;BME280;6953;48.810;9.204;2023-02-20T12:01:29;99639.38;;;33.80;15.63
13765;BME280;6953;48.810;9.204;2023-02-20T12:03:57;99679.75;;;34.16;15.72
13765;BME280;6953;48.810;9.204;2023-02-20T12:06:41;99684.06;;;34.84;15.26
13765;BME280;6953;48.810;9.204;2023-02-20T12:09:11;99586.81;;;35.02;14.39
13765;BME280;6953;48.810;9.204;2023-02-20T12:11:38;99711.00;;;35.76;14.05
13765;BME280;6953;48.810;9.204;2023-02-20T12:14:10;99631.94;;;36.18;13.73
13765;BME280;6953;48.810;9.204;2023-02-20T12:19:27;99663.72;;;36.99;13.33
13765;BME280;6953;48.810;9.204;2023-02-20T12:25:02;99593.72;;;36.60;13.05
13765;BME280;6953;48.810;9.204;2023-02-20T12:36:00;99642.25;;;39.08;11.63
13765;BME280;6953;48.810;9.204;2023-02-20T12:38:47;99605.44;;;38.63;11.67
13765;BME280;6953;48.810;9.204;2023-02-20T12:41:34;99578.75;;;38.18;12.09
13765;BME280;6953;48.810;9.204;2023-02-20T12:44:45;99617.69;;;38.90;12.00
13765;BME280;6953;48.810;9.204;2023-02-20T12:47:29;99440.56;;;36.90;12.73
13765;BME280;6953;48.810;9.204;2023-02-20T12:56:19;99405.94;;;35.26;13.48
13765;BME280;6953;48.810;9.204;2023-02-20T13:01:05;99543.31;;;35.20;14.14
13765;BME280;6953;48.810;9.204;2023-02-20T13:03:38;99580.75;;;35.50;14.06
13765;BME280;6953;48.810;9.204;2023-02-20T13:06:06;99522.19;;;35.40;13.55
13765;BME280;6953;48.810;9.204;2023-02-20T13:08:54;99569.78;;;35.20;14.05
13765;BME280;6953;48.810;9.204;2023-02-20T13:11:24;99559.44;;;35.28;14.23
13765;BME280;6953;48.810;9.204;2023-02-20T13:16:36;99566.28;;;34.93;13.84
13765;BME280;6953;48.810;9.204;2023-02-20T13:19:16;99361.09;;;33.50;14.06
13765;BME280;6953;48.810;9.204;2023-02-20T13:21:44;99549.13;;;34.41;14.23
13765;BME280;6953;48.810;9.204;2023-02-20T13:26:52;99554.16;;;33.39;14.95
13765;BME280;6953;48.810;9.204;2023-02-20T13:29:23;99350.22;;;29.58;16.92
13765;BME280;6953;48.810;9.204;2023-02-20T13:31:56;99510.44;;;28.14;19.38
13765;BME280;6953;48.810;9.204;2023-02-20T13:34:31;99336.38;;;25.43;21.72
13765;BME280;6953;48.810;9.204;2023-02-20T13:36:57;99240.66;;;23.41;23.74
13765;BME280;6953;48.810;9.204;2023-02-20T13:39:34;99474.75;;;23.95;25.18
13765;BME280;6953;48.810;9.204;2023-02-20T13:42:02;99264.75;;;22.48;25.86
13765;BME280;6953;48.810;9.204;2023-02-20T13:55:09;99194.03;;;19.92;28.59
13765;BME280;6953;48.810;9.204;2023-02-20T13:57:53;99422.88;;;20.93;27.95
13765;BME280;6953;48.810;9.204;2023-02-20T14:02:59;99189.78;;;19.04;27.40
13765;BME280;6953;48.810;9.204;2023-02-20T14:05:28;99200.31;;;18.94;28.02
13765;BME280;6953;48.810;9.204;2023-02-20T14:07:55;99417.78;;;19.82;28.44
13765;BME280;6953;48.810;9.204;2023-02-20T14:10:26;99391.53;;;19.66;28.55
13765;BME280;6953;48.810;9.204;2023-02-20T14:13:00;99382.78;;;19.53;29.04
13765;BME280;6953;48.810;9.204;2023-02-20T14:15:27;99308.41;;;18.95;28.32
13765;BME280;6953;48.810;9.204;2023-02-20T14:17:55;99355.22;;;19.09;28.06
13765;BME280;6953;48.810;9.204;2023-02-20T14:20:47;99387.44;;;19.17;26.91
13765;BME280;6953;48.810;9.204;2023-02-20T14:23:24;99433.22;;;19.09;26.92
13765;BME280;6953;48.810;9.204;2023-02-20T14:25:58;99401.38;;;18.97;26.79
13765;BME280;6953;48.810;9.204;2023-02-20T14:28:24;99243.09;;;17.88;26.75
13765;BME280;6953;48.810;9.204;2023-02-20T14:33:54;99359.38;;;18.55;29.81
13765;BME280;6953;48.810;9.204;2023-02-20T14:36:47;99146.72;;;17.16;36.43
13765;BME280;6953;48.810;9.204;2023-02-20T14:39:28;99310.47;;;17.98;37.61
13765;BME280;6953;48.810;9.204;2023-02-20T14:42:02;99380.97;;;18.15;38.36
13765;BME280;6953;48.810;9.204;2023-02-20T14:44:32;99357.13;;;18.02;38.30
13765;BME280;6953;48.810;9.204;2023-02-20T14:47:14;99336.63;;;17.92;37.44
13765;BME280;6953;48.810;9.204;2023-02-20T14:49:40;99326.53;;;17.49;37.86
13765;BME280;6953;48.810;9.204;2023-02-20T14:54:42;99365.16;;;17.65;37.66
13765;BME280;6953;48.810;9.204;2023-02-20T14:57:13;99345.34;;;17.33;36.19
13765;BME280;6953;48.810;9.204;2023-02-20T14:59:39;99358.69;;;17.44;34.83
13765;BME280;6953;48.810;9.204;2023-02-20T15:02:25;99369.00;;;17.49;35.41
13765;BME280;6953;48.810;9.204;2023-02-20T15:04:54;99249.00;;;16.83;35.57
13765;BME280;6953;48.810;9.204;2023-02-20T15:07:23;99360.84;;;17.39;36.67
13765;BME280;6953;48.810;9.204;2023-02-20T15:09:51;99274.97;;;16.90;36.87
13765;BME280;6953;48.810;9.204;2023-02-20T15:12:23;99356.25;;;17.29;36.74